createdAt,value
2022-09-24T00:01:19.713Z,14.50
2022-09-24T00:04:20.135Z,14.50
2022-09-24T00:07:18.442Z,14.50
2022-09-24T00:10:17.074Z,14.60
2022-09-24T00:13:17.942Z,14.60
2022-09-24T00:16:18.492Z,14.60
2022-09-24T00:19:16.748Z,14.70
2022-09-24T00:22:15.429Z,14.70
2022-09-24T00:25:28.854Z,14.70
2022-09-24T00:28:28.170Z,14.80
2022-09-24T00:31:26.840Z,14.80
2022-09-24T00:34:25.589Z,14.70
2022-09-24T00:37:23.685Z,14.70
2022-09-24T00:40:27.554Z,14.60
2022-09-24T00:43:30.058Z,14.60
2022-09-24T00:46:44.756Z,14.60
2022-09-24T00:49:43.925Z,14.50
2022-09-24T00:52:49.060Z,14.50
2022-09-24T00:55:52.329Z,14.50
2022-09-24T00:58:54.591Z,14.50
2022-09-24T01:01:55.719Z,14.50
2022-09-24T01:04:56.638Z,14.50
2022-09-24T01:07:55.439Z,14.50
2022-09-24T01:11:20.464Z,14.50
2022-09-24T01:14:52.036Z,14.60
2022-09-24T01:18:21.756Z,14.60
2022-09-24T01:21:29.304Z,14.70
2022-09-24T01:24:52.859Z,14.70
2022-09-24T01:28:16.386Z,14.80
2022-09-24T01:31:22.937Z,14.90
2022-09-24T01:34:27.469Z,15.00
2022-09-24T01:37:29.436Z,15.10
2022-09-24T01:40:29.739Z,15.20
2022-09-24T01:43:30.895Z,15.30
2022-09-24T01:46:29.853Z,15.50
2022-09-24T01:49:29.160Z,15.40
2022-09-24T01:52:34.561Z,15.50
2022-09-24T01:55:41.432Z,15.70
2022-09-24T01:58:58.277Z,15.80
2022-09-24T02:02:08.379Z,16.00
2022-09-24T02:05:18.250Z,16.20
2022-09-24T02:08:29.949Z,16.30
2022-09-24T02:11:28.985Z,16.40
2022-09-24T02:14:32.389Z,16.60
2022-09-24T02:17:34.186Z,16.80
2022-09-24T02:20:36.861Z,16.90
2022-09-24T02:23:38.014Z,17.00
2022-09-24T02:26:36.851Z,17.10
2022-09-24T02:29:35.892Z,17.20
2022-09-24T02:32:37.529Z,17.30
2022-09-24T02:35:41.154Z,17.40
2022-09-24T02:38:40.569Z,17.50
2022-09-24T02:41:39.364Z,17.70
2022-09-24T02:44:38.360Z,17.80
2022-09-24T02:47:37.491Z,17.90
2022-09-24T02:50:36.227Z,18.10
2022-09-24T02:53:34.446Z,18.20
2022-09-24T02:56:33.216Z,18.30
2022-09-24T02:59:31.468Z,18.60
2022-09-24T03:02:30.225Z,18.80
2022-09-24T03:05:28.430Z,19.00
2022-09-24T03:08:27.654Z,19.10
2022-09-24T03:11:26.069Z,19.20
2022-09-24T03:14:25.612Z,19.30
2022-09-24T03:17:23.799Z,19.40
2022-09-24T03:20:24.713Z,19.50
2022-09-24T03:23:22.966Z,19.70
2022-09-24T03:26:21.722Z,19.80
2022-09-24T03:29:39.785Z,19.90
2022-09-24T03:32:39.922Z,20.00
2022-09-24T03:35:38.129Z,20.10
2022-09-24T03:38:38.884Z,20.30
2022-09-24T03:41:37.041Z,20.50
2022-09-24T03:44:35.632Z,20.50
2022-09-24T03:47:34.420Z,20.60
2022-09-24T03:50:36.474Z,20.70
2022-09-24T03:53:35.052Z,20.90
2022-09-24T03:56:33.988Z,20.90
2022-09-24T03:59:32.278Z,21.00
2022-09-24T04:02:31.725Z,21.00
2022-09-24T04:05:30.756Z,21.10
2022-09-24T04:08:29.457Z,21.20
2022-09-24T04:11:28.078Z,21.20
2022-09-24T04:14:26.701Z,21.30
2022-09-24T04:17:28.271Z,21.30
2022-09-24T04:20:29.845Z,21.30
2022-09-24T04:23:29.413Z,21.40
2022-09-24T04:26:28.063Z,21.50
2022-09-24T04:29:26.222Z,21.60
2022-09-24T04:32:25.001Z,21.60
2022-09-24T04:35:24.734Z,21.70
2022-09-24T04:38:23.432Z,21.80
2022-09-24T04:41:21.942Z,21.80
2022-09-24T04:44:20.954Z,21.90
2022-09-24T04:47:19.505Z,22.00
2022-09-24T04:50:18.232Z,22.00
2022-09-24T04:53:16.368Z,22.10
2022-09-24T04:56:15.911Z,22.20
2022-09-24T04:59:14.037Z,22.30
2022-09-24T05:02:12.928Z,22.30
2022-09-24T05:05:12.348Z,22.40
2022-09-24T05:08:11.453Z,22.50
2022-09-24T05:11:09.765Z,22.60
2022-09-24T05:14:08.972Z,22.60
2022-09-24T05:17:07.323Z,22.60
2022-09-24T05:20:07.608Z,22.80
2022-09-24T05:23:05.833Z,22.80
2022-09-24T05:26:19.739Z,23.00
2022-09-24T05:29:18.277Z,23.10
2022-09-24T05:32:21.956Z,23.10
2022-09-24T05:35:23.406Z,23.20
2022-09-24T05:38:22.163Z,23.20
2022-09-24T05:41:20.878Z,23.20
2022-09-24T05:44:22.149Z,23.20
2022-09-24T05:47:20.486Z,23.20
2022-09-24T05:50:19.322Z,23.20
2022-09-24T05:53:17.448Z,23.30
2022-09-24T05:56:16.120Z,23.30
2022-09-24T05:59:14.632Z,23.30
2022-09-24T06:02:13.411Z,23.40
2022-09-24T06:05:12.207Z,23.40
2022-09-24T06:08:10.924Z,23.40
2022-09-24T06:11:09.075Z,23.50
2022-09-24T06:14:09.232Z,23.50
2022-09-24T06:17:07.596Z,23.50
2022-09-24T06:20:06.690Z,23.60
2022-09-24T06:23:06.316Z,23.60
2022-09-24T06:26:08.119Z,23.60
2022-09-24T06:29:06.374Z,23.60
2022-09-24T06:32:05.265Z,23.60
2022-09-24T06:35:03.661Z,23.60
2022-09-24T06:38:03.248Z,23.60
2022-09-24T06:41:03.855Z,23.70
2022-09-24T06:44:02.924Z,23.70
2022-09-24T06:47:02.165Z,23.80
2022-09-24T06:50:01.035Z,23.80
2022-09-24T06:52:59.570Z,23.80
2022-09-24T06:56:00.294Z,23.90
2022-09-24T06:58:58.423Z,23.90
2022-09-24T07:01:57.156Z,23.90
2022-09-24T07:04:55.357Z,23.90
2022-09-24T07:07:54.105Z,24.00
2022-09-24T07:10:52.928Z,24.00
2022-09-24T07:13:53.077Z,24.10
2022-09-24T07:16:51.262Z,24.20
2022-09-24T07:19:50.337Z,24.20
2022-09-24T07:22:48.507Z,24.20
2022-09-24T07:25:47.163Z,24.30
2022-09-24T07:28:45.364Z,24.30
2022-09-24T07:31:44.024Z,24.30
2022-09-24T07:34:42.503Z,24.40
2022-09-24T07:37:41.201Z,24.40
2022-09-24T07:40:39.446Z,24.40
2022-09-24T07:43:39.260Z,24.50
2022-09-24T07:46:37.535Z,24.60
2022-09-24T07:49:37.273Z,24.60
2022-09-24T07:52:36.004Z,24.70
2022-09-24T07:55:40.120Z,24.70
2022-09-24T07:58:38.258Z,24.70
2022-09-24T08:01:37.460Z,24.70
2022-09-24T08:04:35.921Z,24.80
2022-09-24T08:07:34.618Z,24.90
2022-09-24T08:10:32.730Z,24.90
2022-09-24T08:13:31.443Z,24.80
2022-09-24T08:16:29.623Z,24.90
2022-09-24T08:19:28.811Z,24.90
2022-09-24T08:22:27.085Z,25.00
2022-09-24T08:25:25.983Z,25.00
2022-09-24T08:28:24.308Z,25.00
2022-09-24T08:31:23.072Z,25.00
2022-09-24T08:34:21.297Z,25.00
2022-09-24T08:37:20.014Z,25.00
2022-09-24T08:40:21.926Z,25.00
2022-09-24T08:43:49.026Z,25.00
2022-09-24T08:47:09.087Z,25.00
2022-09-24T08:50:17.871Z,25.10
2022-09-24T08:53:26.543Z,25.20
2022-09-24T08:56:29.887Z,25.20
2022-09-24T08:59:33.239Z,25.20
2022-09-24T09:02:59.781Z,25.20
2022-09-24T09:06:04.149Z,25.20
2022-09-24T09:09:15.721Z,25.20
2022-09-24T09:12:20.010Z,25.20
2022-09-24T09:15:28.208Z,25.20
2022-09-24T09:18:33.575Z,25.30
2022-09-24T09:21:53.122Z,25.20
2022-09-24T09:24:53.585Z,25.30
2022-09-24T09:27:57.154Z,25.40
2022-09-24T09:31:19.562Z,25.40
2022-09-24T09:34:44.851Z,25.40
2022-09-24T09:37:55.610Z,25.50
2022-09-24T09:41:18.738Z,25.50
2022-09-24T09:44:22.785Z,25.50
2022-09-24T09:47:41.952Z,25.60
2022-09-24T09:50:48.395Z,25.70
2022-09-24T09:54:03.811Z,25.60
2022-09-24T09:57:04.312Z,25.60
2022-09-24T10:00:04.253Z,25.60
2022-09-24T10:03:03.796Z,25.60
2022-09-24T10:06:04.338Z,25.60
2022-09-24T10:09:20.426Z,25.60
2022-09-24T10:12:22.837Z,25.60
2022-09-24T10:15:25.205Z,25.50
2022-09-24T10:18:31.537Z,25.50
2022-09-24T10:21:35.168Z,25.50
2022-09-24T10:24:36.368Z,25.50
2022-09-24T10:27:37.985Z,25.50
2022-09-24T10:30:48.532Z,25.60
2022-09-24T10:33:49.756Z,25.70
2022-09-24T10:36:53.267Z,25.60
2022-09-24T10:40:15.804Z,25.60
2022-09-24T10:43:20.214Z,25.60
2022-09-24T10:46:44.548Z,25.50
2022-09-24T10:50:03.691Z,25.50
2022-09-24T10:53:09.155Z,25.60
2022-09-24T10:56:21.811Z,25.60
2022-09-24T10:59:44.253Z,25.60
2022-09-24T11:03:00.786Z,25.60
2022-09-24T11:06:19.227Z,25.60
2022-09-24T11:09:48.832Z,25.50
2022-09-24T11:13:17.552Z,25.40
2022-09-24T11:16:39.675Z,25.30
2022-09-24T11:20:13.180Z,25.30
2022-09-24T11:23:37.438Z,25.30
2022-09-24T11:27:05.482Z,25.30
2022-09-24T11:30:16.397Z,25.30
2022-09-24T11:33:30.783Z,25.30
2022-09-24T11:36:49.128Z,25.20
2022-09-24T11:40:12.616Z,25.30
2022-09-24T11:43:33.336Z,25.30
2022-09-24T11:46:57.350Z,25.20
2022-09-24T11:50:26.745Z,25.20
2022-09-24T11:53:37.428Z,25.10
2022-09-24T11:56:44.017Z,25.00
2022-09-24T11:59:51.702Z,25.00
2022-09-24T12:02:57.325Z,25.00
2022-09-24T12:06:08.103Z,24.90
2022-09-24T12:09:46.502Z,24.80
2022-09-24T12:12:48.001Z,24.70
2022-09-24T12:15:53.311Z,24.70
2022-09-24T12:19:11.039Z,24.70
2022-09-24T12:22:11.312Z,24.70
2022-09-24T12:25:13.590Z,24.50
2022-09-24T12:28:36.464Z,24.40
2022-09-24T12:32:10.270Z,24.40
2022-09-24T12:35:20.357Z,24.20
2022-09-24T12:38:32.101Z,24.00
2022-09-24T12:41:48.295Z,23.80
2022-09-24T12:44:52.633Z,23.60
2022-09-24T12:47:57.646Z,23.40
2022-09-24T12:51:00.344Z,23.10
2022-09-24T12:54:06.599Z,22.90
2022-09-24T12:57:25.324Z,22.80
2022-09-24T13:00:39.662Z,22.60
2022-09-24T13:03:46.644Z,22.40
2022-09-24T13:06:48.808Z,22.20
2022-09-24T13:09:47.095Z,22.00
2022-09-24T13:12:47.014Z,21.80
2022-09-24T13:15:45.730Z,21.60
2022-09-24T13:18:52.085Z,21.40
2022-09-24T13:21:59.671Z,21.30
2022-09-24T13:25:19.884Z,21.10
2022-09-24T13:28:29.257Z,20.90
2022-09-24T13:31:49.489Z,20.80
2022-09-24T13:34:50.686Z,20.60
2022-09-24T13:37:56.455Z,20.50
2022-09-24T13:41:07.536Z,20.40
2022-09-24T13:44:22.991Z,20.60
2022-09-24T13:47:36.596Z,20.20
2022-09-24T13:50:40.861Z,20.10
2022-09-24T13:53:47.524Z,20.00
2022-09-24T13:57:07.522Z,19.90
2022-09-24T14:00:20.265Z,19.80
2022-09-24T14:03:26.351Z,19.60
2022-09-24T14:06:35.884Z,19.50
2022-09-24T14:09:36.772Z,19.30
2022-09-24T14:12:35.020Z,19.20
2022-09-24T14:15:33.661Z,19.10
2022-09-24T14:18:35.085Z,19.00
2022-09-24T14:21:41.633Z,18.80
2022-09-24T14:24:44.446Z,18.80
2022-09-24T14:27:46.984Z,18.70
2022-09-24T14:30:55.573Z,18.60
2022-09-24T14:33:54.461Z,18.50
2022-09-24T14:36:54.923Z,18.50
2022-09-24T14:40:02.726Z,18.50
2022-09-24T14:43:03.703Z,18.50
2022-09-24T14:46:05.880Z,18.50
2022-09-24T14:49:07.482Z,18.40
2022-09-24T14:52:06.217Z,18.40
2022-09-24T14:55:20.980Z,18.30
2022-09-24T14:58:36.874Z,18.30
2022-09-24T15:01:35.220Z,18.20
2022-09-24T15:04:33.981Z,18.10
2022-09-24T15:07:33.280Z,18.20
2022-09-24T15:10:31.932Z,18.10
2022-09-24T15:13:36.292Z,18.10
2022-09-24T15:16:38.063Z,18.00
2022-09-24T15:19:37.666Z,17.90
2022-09-24T15:22:36.321Z,17.90
2022-09-24T15:25:34.720Z,17.80
2022-09-24T15:28:33.402Z,17.80
2022-09-24T15:31:31.965Z,17.70
2022-09-24T15:34:30.659Z,17.70
2022-09-24T15:37:30.150Z,17.70
2022-09-24T15:40:31.588Z,17.60
2022-09-24T15:43:30.060Z,17.60
2022-09-24T15:46:29.070Z,17.60
2022-09-24T15:49:27.680Z,17.60
2022-09-24T15:52:32.334Z,17.50
2022-09-24T15:55:31.738Z,17.50
2022-09-24T15:58:30.623Z,17.40
2022-09-24T16:01:28.904Z,17.40
2022-09-24T16:04:27.949Z,17.30
2022-09-24T16:07:26.757Z,17.30
2022-09-24T16:10:25.530Z,17.30
2022-09-24T16:13:24.225Z,17.30
2022-09-24T16:16:22.937Z,17.20
2022-09-24T16:19:21.091Z,17.20
2022-09-24T16:22:20.777Z,17.20
2022-09-24T16:25:19.217Z,17.10
2022-09-24T16:28:18.243Z,17.10
2022-09-24T16:31:16.476Z,17.10
2022-09-24T16:34:15.313Z,17.00
2022-09-24T16:37:15.047Z,16.90
2022-09-24T16:40:13.888Z,17.00
2022-09-24T16:43:12.059Z,17.00
2022-09-24T16:46:14.132Z,17.00
2022-09-24T16:49:18.038Z,17.00
2022-09-24T16:52:16.897Z,16.90
2022-09-24T16:55:15.166Z,16.90
2022-09-24T16:58:14.097Z,17.00
2022-09-24T17:01:14.898Z,16.90
2022-09-24T17:04:13.721Z,16.90
2022-09-24T17:07:13.780Z,17.00
2022-09-24T17:10:13.820Z,17.00
2022-09-24T17:13:11.966Z,17.00
2022-09-24T17:16:11.013Z,16.90
2022-09-24T17:19:12.195Z,16.90
2022-09-24T17:22:11.027Z,16.90
2022-09-24T17:25:09.648Z,16.80
2022-09-24T17:28:08.335Z,16.90
2022-09-24T17:31:07.758Z,16.80
2022-09-24T17:34:10.168Z,16.90
2022-09-24T17:37:08.447Z,16.80
2022-09-24T17:40:08.576Z,16.90
2022-09-24T17:43:06.782Z,16.90
2022-09-24T17:46:13.768Z,16.90
2022-09-24T17:49:13.089Z,16.90
2022-09-24T17:52:13.902Z,16.90
2022-09-24T17:55:12.059Z,16.80
2022-09-24T17:58:10.738Z,16.80
2022-09-24T18:01:13.243Z,16.80
2022-09-24T18:04:14.575Z,16.80
2022-09-24T18:07:12.727Z,16.70
2022-09-24T18:10:11.543Z,16.70
2022-09-24T18:13:09.886Z,16.70
2022-09-24T18:16:11.754Z,16.70
2022-09-24T18:19:12.555Z,16.70
2022-09-24T18:22:11.789Z,16.60
2022-09-24T18:25:10.675Z,16.60
2022-09-24T18:28:09.984Z,16.60
2022-09-24T18:31:11.022Z,16.60
2022-09-24T18:34:13.538Z,16.60
2022-09-24T18:37:11.736Z,16.60
2022-09-24T18:40:11.365Z,16.60
2022-09-24T18:43:09.558Z,16.60
2022-09-24T18:46:11.854Z,16.50
2022-09-24T18:49:11.908Z,16.50
2022-09-24T18:52:11.062Z,16.50
2022-09-24T18:55:09.977Z,16.40
2022-09-24T18:58:11.500Z,16.40
2022-09-24T19:01:10.088Z,16.30
2022-09-24T19:04:11.223Z,16.40
2022-09-24T19:07:10.216Z,16.40
2022-09-24T19:10:11.008Z,16.30
2022-09-24T19:13:12.256Z,16.40
2022-09-24T19:16:14.029Z,16.30
2022-09-24T19:19:12.769Z,16.30
2022-09-24T19:22:11.579Z,16.30
2022-09-24T19:25:10.311Z,16.30
2022-09-24T19:28:12.688Z,16.20
2022-09-24T19:31:16.834Z,16.20
2022-09-24T19:34:15.881Z,16.20
2022-09-24T19:37:14.398Z,16.20
2022-09-24T19:40:13.825Z,16.20
2022-09-24T19:43:12.726Z,16.30
2022-09-24T19:46:15.284Z,16.20
2022-09-24T19:49:14.148Z,16.20
2022-09-24T19:52:12.911Z,16.20
2022-09-24T19:55:11.328Z,16.30
2022-09-24T19:58:10.101Z,16.30
2022-09-24T20:01:12.449Z,16.20
2022-09-24T20:04:15.701Z,16.30
2022-09-24T20:07:14.576Z,16.30
2022-09-24T20:10:13.347Z,16.30
2022-09-24T20:13:13.011Z,16.30
2022-09-24T20:16:12.338Z,16.30
2022-09-24T20:19:12.891Z,16.30
2022-09-24T20:22:16.607Z,16.30
2022-09-24T20:25:15.530Z,16.30
2022-09-24T20:28:15.938Z,16.20
2022-09-24T20:31:16.568Z,16.20
2022-09-24T20:34:15.365Z,16.30
2022-09-24T20:37:13.714Z,16.30
2022-09-24T20:40:12.751Z,16.30
2022-09-24T20:43:10.993Z,16.30
2022-09-24T20:46:11.241Z,16.20
2022-09-24T20:49:19.094Z,16.20
2022-09-24T20:52:17.777Z,16.20
2022-09-24T20:55:16.169Z,16.20
2022-09-24T20:58:16.874Z,16.20
2022-09-24T21:01:16.213Z,16.20
2022-09-24T21:04:15.061Z,16.20
2022-09-24T21:07:13.359Z,16.20
2022-09-24T21:10:13.747Z,16.20
2022-09-24T21:13:12.786Z,16.10
2022-09-24T21:16:12.627Z,16.10
2022-09-24T21:19:12.850Z,16.10
2022-09-24T21:22:14.114Z,16.10
2022-09-24T21:25:12.269Z,16.10
2022-09-24T21:28:10.956Z,16.20
2022-09-24T21:31:09.970Z,16.10
2022-09-24T21:34:09.273Z,16.10
2022-09-24T21:37:08.092Z,16.10
2022-09-24T21:40:07.724Z,16.10
2022-09-24T21:43:07.310Z,16.00
2022-09-24T21:46:07.469Z,16.00
2022-09-24T21:49:05.639Z,15.90
2022-09-24T21:52:06.556Z,15.90
2022-09-24T21:55:05.024Z,15.90
2022-09-24T21:58:03.627Z,15.90
2022-09-24T22:01:05.184Z,15.80
2022-09-24T22:04:06.206Z,15.70
2022-09-24T22:07:04.991Z,15.70
2022-09-24T22:10:03.755Z,15.70
2022-09-24T22:13:02.036Z,15.60
2022-09-24T22:16:02.452Z,15.60
2022-09-24T22:19:01.125Z,15.60
2022-09-24T22:21:59.955Z,15.60
2022-09-24T22:24:58.144Z,15.60
2022-09-24T22:27:56.843Z,15.50
2022-09-24T22:30:57.353Z,15.50
2022-09-24T22:34:12.094Z,15.50
2022-09-24T22:37:10.322Z,15.50
2022-09-24T22:40:09.341Z,15.50
2022-09-24T22:43:07.613Z,15.50
2022-09-24T22:46:09.155Z,15.50
2022-09-24T22:49:08.605Z,15.50
2022-09-24T22:52:07.269Z,15.50
2022-09-24T22:55:05.959Z,15.50
2022-09-24T22:58:04.696Z,15.50
2022-09-24T23:01:11.031Z,15.50
2022-09-24T23:04:11.122Z,15.40
2022-09-24T23:07:09.319Z,15.40
2022-09-24T23:10:08.594Z,15.40
2022-09-24T23:13:06.788Z,15.40
2022-09-24T23:16:12.192Z,15.40
2022-09-24T23:19:16.610Z,15.40
2022-09-24T23:22:16.958Z,15.40
2022-09-24T23:25:15.175Z,15.50
2022-09-24T23:28:13.860Z,15.50
2022-09-24T23:31:14.150Z,15.70
2022-09-24T23:34:14.659Z,15.70
2022-09-24T23:37:13.298Z,15.70
2022-09-24T23:40:12.234Z,15.80
2022-09-24T23:43:10.665Z,15.80
2022-09-24T23:46:10.997Z,15.80
2022-09-24T23:49:09.266Z,15.80
2022-09-24T23:52:09.044Z,15.70
2022-09-24T23:55:07.550Z,15.70
2022-09-24T23:58:06.393Z,15.60
